createdAt,value
2023-04-26T00:00:13.624Z,1.10
2023-04-26T00:02:45.709Z,1.20
2023-04-26T00:05:14.773Z,1.25
2023-04-26T00:08:18.027Z,1.25
2023-04-26T00:10:51.731Z,1.10
2023-04-26T00:13:32.860Z,1.02
2023-04-26T00:16:04.253Z,1.23
2023-04-26T00:18:34.527Z,1.25
2023-04-26T00:21:06.684Z,1.38
2023-04-26T00:23:38.993Z,0.90
2023-04-26T00:26:17.796Z,1.80
2023-04-26T00:28:45.598Z,1.20
2023-04-26T00:31:18.007Z,1.02
2023-04-26T00:33:45.659Z,1.40
2023-04-26T00:36:14.491Z,1.20
2023-04-26T00:38:53.317Z,1.45
2023-04-26T00:41:22.696Z,1.30
2023-04-26T00:43:50.084Z,1.73
2023-04-26T00:46:21.054Z,0.88
2023-04-26T00:51:40.863Z,1.17
2023-04-26T00:54:11.739Z,1.10
2023-04-26T00:57:03.483Z,1.17
2023-04-26T00:59:37.600Z,1.35
2023-04-26T01:02:13.768Z,2.10
2023-04-26T01:04:46.023Z,1.38
2023-04-26T01:07:18.823Z,1.60
2023-04-26T01:10:03.665Z,1.30
2023-04-26T01:15:29.952Z,1.63
2023-04-26T01:18:05.775Z,1.42
2023-04-26T01:20:36.269Z,1.60
2023-04-26T01:23:09.465Z,1.52
2023-04-26T01:25:42.771Z,1.10
2023-04-26T01:28:17.972Z,1.25
2023-04-26T01:30:47.655Z,0.85
2023-04-26T01:33:23.216Z,1.42
2023-04-26T01:35:54.082Z,1.10
2023-04-26T01:38:26.390Z,1.08
2023-04-26T01:40:56.391Z,1.55
2023-04-26T01:43:33.602Z,1.10
2023-04-26T01:46:04.205Z,1.08
2023-04-26T01:48:36.598Z,1.10
2023-04-26T01:51:04.956Z,1.08
2023-04-26T01:53:32.945Z,1.00
2023-04-26T01:56:11.908Z,1.35
2023-04-26T01:58:42.650Z,1.85
2023-04-26T02:01:12.415Z,2.28
2023-04-26T02:03:45.878Z,1.83
2023-04-26T02:06:39.431Z,1.50
2023-04-26T02:09:23.912Z,1.70
2023-04-26T02:11:54.931Z,2.35
2023-04-26T02:14:22.612Z,2.67
2023-04-26T02:16:52.422Z,3.38
2023-04-26T02:19:23.560Z,2.90
2023-04-26T02:22:03.807Z,3.20
2023-04-26T02:24:36.546Z,2.13
2023-04-26T02:27:13.589Z,2.00
2023-04-26T02:29:59.513Z,2.00
2023-04-26T02:32:27.371Z,2.15
2023-04-26T02:34:58.924Z,1.88
2023-04-26T02:37:31.910Z,2.22
2023-04-26T02:40:09.426Z,1.85
2023-04-26T02:42:42.839Z,2.20
2023-04-26T02:45:11.134Z,2.67
2023-04-26T02:47:45.727Z,2.08
2023-04-26T02:50:13.323Z,1.98
2023-04-26T02:52:50.343Z,1.58
2023-04-26T02:55:20.263Z,1.85
2023-04-26T02:58:02.737Z,1.48
2023-04-26T03:00:40.684Z,1.60
2023-04-26T03:03:18.598Z,1.90
2023-04-26T03:05:56.079Z,1.60
2023-04-26T03:08:41.926Z,1.52
2023-04-26T03:11:11.847Z,1.10
2023-04-26T03:13:48.009Z,1.15
2023-04-26T03:16:20.102Z,1.02
2023-04-26T03:18:56.165Z,1.45
2023-04-26T03:21:39.966Z,1.58
2023-04-26T03:24:07.888Z,1.65
2023-04-26T03:26:44.911Z,1.85
2023-04-26T03:29:14.952Z,1.38
2023-04-26T03:31:45.830Z,1.67
2023-04-26T03:34:16.651Z,2.03
2023-04-26T03:36:44.684Z,1.88
2023-04-26T03:39:12.672Z,1.90
2023-04-26T03:41:45.526Z,1.58
2023-04-26T03:44:14.458Z,1.33
2023-04-26T03:46:49.354Z,1.70
2023-04-26T03:49:21.559Z,1.83
2023-04-26T03:52:08.684Z,2.28
2023-04-26T03:54:36.553Z,1.60
2023-04-26T03:57:06.802Z,1.58
2023-04-26T03:59:43.890Z,1.60
2023-04-26T04:02:15.379Z,1.80
2023-04-26T04:05:11.586Z,1.77
2023-04-26T04:07:39.379Z,1.88
2023-04-26T04:10:21.284Z,1.75
2023-04-26T04:12:53.347Z,1.83
2023-04-26T04:15:41.309Z,1.77
2023-04-26T04:18:15.017Z,2.15
2023-04-26T04:20:52.862Z,1.80
2023-04-26T04:23:30.931Z,1.35
2023-04-26T04:25:58.925Z,1.80
2023-04-26T04:29:11.623Z,1.90
2023-04-26T04:31:37.571Z,2.10
2023-04-26T04:34:05.921Z,2.33
2023-04-26T04:36:36.059Z,1.75
2023-04-26T04:39:20.965Z,1.73
2023-04-26T04:41:54.257Z,2.45
2023-04-26T04:44:26.473Z,1.60
2023-04-26T04:46:57.573Z,2.05
2023-04-26T04:49:30.812Z,2.53
2023-04-26T04:52:06.825Z,2.47
2023-04-26T04:54:54.491Z,3.05
2023-04-26T04:57:25.978Z,11.02
2023-04-26T04:59:58.412Z,7.63
2023-04-26T05:02:36.151Z,9.52
2023-04-26T05:05:10.561Z,4.75
2023-04-26T05:07:40.564Z,2.90
2023-04-26T05:10:11.835Z,2.95
2023-04-26T05:12:59.646Z,2.88
2023-04-26T05:15:29.161Z,2.80
2023-04-26T05:18:19.590Z,2.80
2023-04-26T05:20:59.301Z,2.78
2023-04-26T05:23:31.038Z,3.58
2023-04-26T05:26:16.304Z,3.20
2023-04-26T05:28:49.654Z,2.53
2023-04-26T05:31:37.986Z,3.72
2023-04-26T05:34:08.338Z,2.42
2023-04-26T05:40:05.640Z,3.08
2023-04-26T05:43:01.281Z,3.33
2023-04-26T05:45:32.746Z,2.47
2023-04-26T05:48:18.710Z,2.55
2023-04-26T05:51:08.759Z,2.50
2023-04-26T05:53:57.997Z,2.10
2023-04-26T05:56:51.204Z,2.85
2023-04-26T05:59:23.253Z,3.92
2023-04-26T06:02:02.212Z,3.85
2023-04-26T06:07:47.990Z,1.90
2023-04-26T06:10:39.868Z,2.83
2023-04-26T06:13:17.513Z,2.80
2023-04-26T06:16:20.072Z,2.53
2023-04-26T06:22:01.319Z,3.47
2023-04-26T06:30:50.403Z,2.20
2023-04-26T06:33:42.506Z,2.42
2023-04-26T06:36:38.607Z,2.70
2023-04-26T06:39:42.362Z,2.15
2023-04-26T06:42:20.312Z,2.42
2023-04-26T06:48:41.976Z,1.95
2023-04-26T06:54:14.383Z,1.50
2023-04-26T07:03:36.960Z,2.50
2023-04-26T07:06:44.033Z,2.88
2023-04-26T07:09:43.388Z,2.35
2023-04-26T07:19:44.516Z,2.90
2023-04-26T07:22:41.803Z,2.40
2023-04-26T07:25:52.370Z,3.22
2023-04-26T07:36:13.742Z,3.22
2023-04-26T07:38:57.644Z,2.97
2023-04-26T07:41:59.874Z,2.30
2023-04-26T07:44:57.612Z,2.60
2023-04-26T07:51:02.546Z,3.05
2023-04-26T07:53:59.367Z,4.38
2023-04-26T07:56:39.393Z,3.00
2023-04-26T07:59:34.817Z,2.63
2023-04-26T08:02:15.264Z,2.50
2023-04-26T08:06:10.284Z,2.75
2023-04-26T08:09:01.759Z,3.15
2023-04-26T08:11:37.388Z,2.70
2023-04-26T08:14:37.005Z,2.63
2023-04-26T08:17:55.414Z,3.70
2023-04-26T08:21:53.085Z,3.00
2023-04-26T08:24:36.269Z,3.97
2023-04-26T08:28:11.673Z,3.13
2023-04-26T08:31:17.787Z,2.40
2023-04-26T08:33:53.014Z,2.10
2023-04-26T08:36:43.560Z,4.75
2023-04-26T08:39:47.276Z,2.97
2023-04-26T08:44:04.531Z,2.22
2023-04-26T08:46:27.326Z,2.33
2023-04-26T08:49:54.457Z,2.47
2023-04-26T08:52:38.450Z,3.10
2023-04-26T08:56:30.235Z,2.95
2023-04-26T08:59:21.119Z,2.92
2023-04-26T09:05:54.913Z,3.90
2023-04-26T09:08:37.285Z,2.47
2023-04-26T09:11:48.351Z,3.30
2023-04-26T09:17:49.986Z,2.33
2023-04-26T09:21:10.771Z,2.67
2023-04-26T09:24:16.948Z,2.35
2023-04-26T09:37:10.398Z,2.75
2023-04-26T09:40:19.803Z,3.00
2023-04-26T09:47:15.064Z,3.17
2023-04-26T09:50:06.841Z,2.47
2023-04-26T09:52:47.237Z,3.08
2023-04-26T09:55:55.132Z,2.63
2023-04-26T10:02:54.474Z,3.10
2023-04-26T10:20:08.351Z,3.10
2023-04-26T10:22:52.129Z,2.88
2023-04-26T10:25:56.412Z,2.90
2023-04-26T10:28:58.979Z,2.90
2023-04-26T10:32:32.034Z,3.78
2023-04-26T10:39:38.950Z,6.75
2023-04-26T10:42:42.326Z,3.90
2023-04-26T10:46:09.275Z,9.63
2023-04-26T10:48:52.845Z,4.95
2023-04-26T10:54:58.425Z,3.88
2023-04-26T10:58:00.927Z,3.17
2023-04-26T11:02:06.658Z,3.15
2023-04-26T11:04:31.906Z,3.17
2023-04-26T11:07:41.103Z,3.22
2023-04-26T11:13:34.018Z,2.58
2023-04-26T11:16:38.820Z,2.80
2023-04-26T11:35:31.202Z,3.70
2023-04-26T11:38:51.741Z,3.72
2023-04-26T11:41:38.179Z,3.20
2023-04-26T11:44:42.256Z,2.75
2023-04-26T11:47:49.005Z,2.67
2023-04-26T11:50:24.296Z,2.60
2023-04-26T11:53:07.509Z,3.05
2023-04-26T12:02:50.597Z,3.72
2023-04-26T12:09:13.204Z,2.90
2023-04-26T12:15:09.148Z,3.35
2023-04-26T12:21:31.460Z,2.45
2023-04-26T12:24:51.408Z,2.00
2023-04-26T12:27:45.789Z,2.15
2023-04-26T12:30:30.349Z,1.70
2023-04-26T12:33:31.901Z,1.30
2023-04-26T12:39:49.057Z,2.58
2023-04-26T12:42:48.676Z,2.47
2023-04-26T12:46:38.770Z,1.48
2023-04-26T12:57:03.751Z,2.85
2023-04-26T12:59:53.898Z,2.63
2023-04-26T13:06:11.838Z,2.78
2023-04-26T13:09:23.407Z,2.78
2023-04-26T13:12:24.480Z,3.22
2023-04-26T13:15:32.773Z,2.63
2023-04-26T13:18:50.273Z,2.80
2023-04-26T13:21:45.077Z,3.25
2023-04-26T13:25:45.995Z,3.00
2023-04-26T13:28:01.055Z,1.88
2023-04-26T13:31:08.252Z,2.20
2023-04-26T13:34:30.655Z,2.40
2023-04-26T13:44:11.652Z,2.50
2023-04-26T13:46:43.687Z,3.03
2023-04-26T13:49:38.361Z,2.58
2023-04-26T13:59:11.593Z,3.72
2023-04-26T14:02:35.894Z,2.60
2023-04-26T14:13:33.011Z,2.40
2023-04-26T14:21:13.950Z,3.33
2023-04-26T14:25:25.492Z,2.00
2023-04-26T14:27:41.839Z,2.00
2023-04-26T14:30:46.756Z,2.38
2023-04-26T14:33:45.099Z,1.83
2023-04-26T14:40:05.675Z,2.45
2023-04-26T14:42:52.191Z,2.40
2023-04-26T14:45:42.875Z,2.60
2023-04-26T14:48:56.013Z,1.70
2023-04-26T14:51:54.248Z,2.30
2023-04-26T14:54:22.993Z,2.50
2023-04-26T14:57:35.487Z,1.67
2023-04-26T15:00:18.261Z,1.88
2023-04-26T15:06:13.596Z,2.10
2023-04-26T15:08:54.810Z,1.92
2023-04-26T15:11:47.135Z,1.55
2023-04-26T15:14:25.704Z,2.00
2023-04-26T15:17:16.906Z,1.60
2023-04-26T15:19:55.135Z,1.95
2023-04-26T15:28:25.308Z,1.95
2023-04-26T15:31:18.009Z,1.98
2023-04-26T15:33:55.600Z,2.13
2023-04-26T15:36:42.045Z,1.80
2023-04-26T15:39:41.159Z,2.88
2023-04-26T15:42:22.729Z,2.55
2023-04-26T15:45:05.433Z,2.65
2023-04-26T15:48:06.257Z,2.35
2023-04-26T15:51:38.183Z,2.10
2023-04-26T15:54:01.961Z,2.30
2023-04-26T15:56:47.627Z,2.40
2023-04-26T15:59:46.700Z,2.95
2023-04-26T16:03:00.114Z,2.60
2023-04-26T16:06:23.587Z,4.03
2023-04-26T16:09:02.316Z,3.90
2023-04-26T16:11:48.368Z,4.30
2023-04-26T16:14:51.036Z,3.97
2023-04-26T16:17:26.484Z,3.55
2023-04-26T16:20:10.827Z,3.33
2023-04-26T16:26:59.009Z,3.78
2023-04-26T16:29:35.767Z,4.63
2023-04-26T16:32:43.505Z,4.05
2023-04-26T16:35:44.405Z,4.18
2023-04-26T16:38:22.943Z,5.15
2023-04-26T16:41:45.801Z,5.65
2023-04-26T16:44:24.809Z,4.35
2023-04-26T16:47:33.148Z,3.40
2023-04-26T16:50:15.528Z,3.33
2023-04-26T16:52:48.428Z,3.75
2023-04-26T16:55:17.927Z,3.28
2023-04-26T16:57:51.410Z,3.97
2023-04-26T17:00:34.956Z,3.38
2023-04-26T17:03:12.525Z,3.40
2023-04-26T17:05:56.026Z,4.07
2023-04-26T17:11:26.239Z,4.20
2023-04-26T17:14:12.016Z,4.38
2023-04-26T17:16:52.191Z,4.65
2023-04-26T17:19:44.941Z,5.20
2023-04-26T17:22:26.895Z,4.75
2023-04-26T17:25:26.716Z,4.68
2023-04-26T17:27:59.703Z,4.68
2023-04-26T17:30:32.580Z,5.03
2023-04-26T17:33:12.718Z,5.93
2023-04-26T17:35:49.999Z,5.28
2023-04-26T17:38:49.097Z,3.92
2023-04-26T17:41:17.886Z,5.18
2023-04-26T17:43:56.112Z,3.78
2023-04-26T17:46:26.798Z,4.10
2023-04-26T17:48:57.335Z,4.43
2023-04-26T17:51:28.353Z,4.05
2023-04-26T17:53:56.589Z,4.30
2023-04-26T17:56:26.708Z,3.63
2023-04-26T17:59:00.381Z,4.32
2023-04-26T18:01:28.442Z,4.25
2023-04-26T18:03:58.027Z,4.70
2023-04-26T18:06:27.665Z,4.78
2023-04-26T18:08:55.327Z,4.70
2023-04-26T18:11:27.555Z,4.50
2023-04-26T18:13:57.997Z,4.88
2023-04-26T18:16:29.910Z,4.82
2023-04-26T18:19:25.485Z,4.22
2023-04-26T18:22:01.980Z,5.38
2023-04-26T18:24:32.256Z,4.30
2023-04-26T18:27:06.347Z,5.57
2023-04-26T18:29:35.085Z,4.80
2023-04-26T18:32:11.010Z,4.25
2023-04-26T18:34:49.046Z,14.63
2023-04-26T18:37:29.598Z,13.55
2023-04-26T18:40:05.207Z,5.65
2023-04-26T18:42:35.874Z,4.97
2023-04-26T18:45:03.658Z,5.18
2023-04-26T18:47:48.033Z,4.88
2023-04-26T18:50:18.747Z,4.82
2023-04-26T18:52:46.986Z,5.80
2023-04-26T18:55:14.816Z,5.13
2023-04-26T18:57:54.960Z,5.70
2023-04-26T19:00:22.800Z,4.30
2023-04-26T19:02:56.192Z,4.20
2023-04-26T19:05:23.968Z,4.65
2023-04-26T19:07:54.730Z,4.60
2023-04-26T19:10:57.328Z,3.65
2023-04-26T19:13:23.750Z,3.60
2023-04-26T19:16:07.524Z,3.22
2023-04-26T19:19:15.360Z,3.17
2023-04-26T19:21:43.502Z,3.00
2023-04-26T19:24:11.112Z,3.55
2023-04-26T19:26:51.099Z,3.53
2023-04-26T19:29:20.353Z,3.35
2023-04-26T19:32:08.253Z,2.53
2023-04-26T19:34:39.139Z,2.30
2023-04-26T19:37:13.111Z,2.75
2023-04-26T19:39:41.224Z,2.47
2023-04-26T19:42:48.596Z,1.75
2023-04-26T19:45:29.820Z,2.00
2023-04-26T19:48:00.211Z,3.08
2023-04-26T19:50:31.107Z,1.88
2023-04-26T19:53:00.996Z,1.88
2023-04-26T19:56:00.730Z,2.10
2023-04-26T19:58:27.176Z,1.33
2023-04-26T20:01:19.429Z,2.00
2023-04-26T20:04:02.751Z,1.60
2023-04-26T20:06:33.196Z,1.70
2023-04-26T20:09:04.496Z,1.60
2023-04-26T20:11:46.079Z,1.20
2023-04-26T20:14:16.663Z,1.98
2023-04-26T20:16:46.342Z,1.67
2023-04-26T20:19:18.543Z,1.92
2023-04-26T20:21:53.267Z,1.75
2023-04-26T20:24:28.423Z,1.75
2023-04-26T20:26:56.654Z,1.88
2023-04-26T20:29:27.164Z,1.92
2023-04-26T20:34:40.070Z,1.75
2023-04-26T20:37:15.196Z,1.88
2023-04-26T20:39:43.098Z,1.60
2023-04-26T20:42:10.675Z,1.70
2023-04-26T20:44:55.223Z,1.80
2023-04-26T20:47:26.290Z,2.33
2023-04-26T20:52:51.531Z,2.20
2023-04-26T20:55:23.109Z,2.10
2023-04-26T20:57:54.257Z,2.28
2023-04-26T21:00:24.387Z,2.13
2023-04-26T21:06:02.265Z,2.60
2023-04-26T21:08:37.053Z,3.00
2023-04-26T21:11:08.954Z,2.75
2023-04-26T21:16:27.075Z,2.22
2023-04-26T21:19:07.515Z,2.25
2023-04-26T21:21:37.710Z,2.53
2023-04-26T21:24:09.112Z,2.15
2023-04-26T21:26:49.242Z,2.15
2023-04-26T21:29:21.782Z,2.10
2023-04-26T21:31:49.775Z,1.63
2023-04-26T21:34:31.349Z,1.90
2023-04-26T21:37:11.613Z,2.42
2023-04-26T21:39:42.708Z,1.35
2023-04-26T21:42:14.708Z,1.67
2023-04-26T21:44:47.750Z,1.48
2023-04-26T21:47:15.556Z,1.65
2023-04-26T21:49:43.647Z,1.52
2023-04-26T21:52:11.771Z,1.45
2023-04-26T21:54:43.364Z,1.67
2023-04-26T22:02:28.397Z,1.60
2023-04-26T22:05:03.329Z,1.40
2023-04-26T22:07:34.259Z,1.40
2023-04-26T22:10:06.968Z,1.67
2023-04-26T22:12:44.941Z,1.45
2023-04-26T22:15:14.261Z,1.55
2023-04-26T22:18:04.960Z,1.13
2023-04-26T22:20:33.291Z,1.10
2023-04-26T22:23:12.227Z,1.52
2023-04-26T22:25:40.120Z,1.63
2023-04-26T22:28:14.642Z,1.48
2023-04-26T22:30:46.218Z,1.52
2023-04-26T22:35:45.085Z,1.63
2023-04-26T22:38:32.020Z,1.20
2023-04-26T22:41:16.889Z,1.40
2023-04-26T22:43:57.273Z,1.70
2023-04-26T22:46:29.652Z,2.40
2023-04-26T22:49:13.411Z,2.13
2023-04-26T22:51:57.289Z,2.00
2023-04-26T22:54:39.747Z,1.55
2023-04-26T22:57:11.369Z,1.30
2023-04-26T23:00:01.130Z,1.35
2023-04-26T23:03:13.536Z,1.20
2023-04-26T23:05:41.622Z,1.98
2023-04-26T23:08:11.733Z,1.80
2023-04-26T23:10:40.716Z,1.20
2023-04-26T23:13:11.246Z,1.33
2023-04-26T23:15:39.617Z,1.10
2023-04-26T23:18:07.539Z,2.00
2023-04-26T23:20:52.556Z,1.63
2023-04-26T23:23:31.014Z,1.45
2023-04-26T23:26:01.473Z,1.42
2023-04-26T23:28:29.452Z,1.58
2023-04-26T23:31:02.672Z,1.30
2023-04-26T23:33:37.587Z,1.33
2023-04-26T23:36:05.494Z,1.60
2023-04-26T23:38:34.856Z,2.00
2023-04-26T23:41:05.708Z,1.58
2023-04-26T23:43:34.018Z,1.55
2023-04-26T23:46:07.171Z,1.80
2023-04-26T23:48:36.076Z,1.98
2023-04-26T23:51:06.507Z,1.90
2023-04-26T23:53:44.448Z,1.80
2023-04-26T23:56:22.017Z,3.05
2023-04-26T23:58:52.470Z,1.98
